sensor_id;sensor_type;location;lat;lon;timestamp;temperature;humidity
71188;DHT22;58893;53.130;8.158;2022-11-12T00:00:28;10.50;68.30
71188;DHT22;58893;53.130;8.158;2022-11-12T00:02:53;10.50;68.40
71188;DHT22;58893;53.130;8.158;2022-11-12T00:05:19;10.50;68.60
71188;DHT22;58893;53.130;8.158;2022-11-12T00:07:45;10.50;68.60
71188;DHT22;58893;53.130;8.158;2022-11-12T00:10:10;10.50;68.40
71188;DHT22;58893;53.130;8.158;2022-11-12T00:12:36;10.50;68.00
71188;DHT22;58893;53.130;8.158;2022-11-12T00:15:02;10.50;67.80
71188;DHT22;58893;53.130;8.158;2022-11-12T00:17:27;10.50;67.70
71188;DHT22;58893;53.130;8.158;2022-11-12T00:19:53;10.50;67.80
71188;DHT22;58893;53.130;8.158;2022-11-12T00:22:20;10.50;68.00
71188;DHT22;58893;53.130;8.158;2022-11-12T00:24:46;10.50;68.10
71188;DHT22;58893;53.130;8.158;2022-11-12T00:27:11;10.50;68.30
71188;DHT22;58893;53.130;8.158;2022-11-12T00:29:37;10.50;68.30
71188;DHT22;58893;53.130;8.158;2022-11-12T00:32:04;10.50;68.20
71188;DHT22;58893;53.130;8.158;2022-11-12T00:34:31;10.50;68.00
71188;DHT22;58893;53.130;8.158;2022-11-12T00:36:56;10.50;67.60
71188;DHT22;58893;53.130;8.158;2022-11-12T00:39:22;10.40;67.10
71188;DHT22;58893;53.130;8.158;2022-11-12T00:41:49;10.40;67.00
71188;DHT22;58893;53.130;8.158;2022-11-12T00:44:14;10.40;66.90
71188;DHT22;58893;53.130;8.158;2022-11-12T00:46:40;10.40;66.90
71188;DHT22;58893;53.130;8.158;2022-11-12T00:49:06;10.30;66.60
71188;DHT22;58893;53.130;8.158;2022-11-12T00:51:31;10.30;66.50
71188;DHT22;58893;53.130;8.158;2022-11-12T00:53:57;10.30;66.40
71188;DHT22;58893;53.130;8.158;2022-11-12T00:56:23;10.30;66.40
71188;DHT22;58893;53.130;8.158;2022-11-12T00:58:48;10.20;66.10
71188;DHT22;58893;53.130;8.158;2022-11-12T01:01:14;10.20;66.00
71188;DHT22;58893;53.130;8.158;2022-11-12T01:03:41;10.10;66.10
71188;DHT22;58893;53.130;8.158;2022-11-12T01:06:20;10.10;66.50
71188;DHT22;58893;53.130;8.158;2022-11-12T01:08:46;10.10;66.40
71188;DHT22;58893;53.130;8.158;2022-11-12T01:11:20;10.10;66.30
71188;DHT22;58893;53.130;8.158;2022-11-12T01:13:51;10.10;67.10
71188;DHT22;58893;53.130;8.158;2022-11-12T01:16:20;10.10;66.50
71188;DHT22;58893;53.130;8.158;2022-11-12T01:18:46;10.10;66.80
71188;DHT22;58893;53.130;8.158;2022-11-12T01:21:13;10.10;67.10
71188;DHT22;58893;53.130;8.158;2022-11-12T01:23:41;10.10;66.90
71188;DHT22;58893;53.130;8.158;2022-11-12T01:26:10;10.10;66.60
71188;DHT22;58893;53.130;8.158;2022-11-12T01:28:36;10.00;66.70
71188;DHT22;58893;53.130;8.158;2022-11-12T01:33:44;10.00;66.80
71188;DHT22;58893;53.130;8.158;2022-11-12T01:36:10;10.00;66.70
71188;DHT22;58893;53.130;8.158;2022-11-12T01:38:37;10.00;66.60
71188;DHT22;58893;53.130;8.158;2022-11-12T01:41:03;10.00;66.50
71188;DHT22;58893;53.130;8.158;2022-11-12T01:43:29;10.00;66.40
71188;DHT22;58893;53.130;8.158;2022-11-12T01:45:56;10.00;66.30
71188;DHT22;58893;53.130;8.158;2022-11-12T01:48:31;9.90;67.30
71188;DHT22;58893;53.130;8.158;2022-11-12T01:50:57;9.90;67.10
71188;DHT22;58893;53.130;8.158;2022-11-12T01:53:26;9.90;67.00
71188;DHT22;58893;53.130;8.158;2022-11-12T01:55:54;9.90;67.20
71188;DHT22;58893;53.130;8.158;2022-11-12T01:58:23;9.90;67.50
71188;DHT22;58893;53.130;8.158;2022-11-12T02:00:52;9.90;67.60
71188;DHT22;58893;53.130;8.158;2022-11-12T02:03:20;9.90;67.50
71188;DHT22;58893;53.130;8.158;2022-11-12T02:06:00;9.80;67.40
71188;DHT22;58893;53.130;8.158;2022-11-12T02:08:28;9.80;67.50
71188;DHT22;58893;53.130;8.158;2022-11-12T02:10:55;9.80;67.40
71188;DHT22;58893;53.130;8.158;2022-11-12T02:13:21;9.80;67.20
71188;DHT22;58893;53.130;8.158;2022-11-12T02:16:06;9.80;67.10
71188;DHT22;58893;53.130;8.158;2022-11-12T02:18:33;9.80;67.20
71188;DHT22;58893;53.130;8.158;2022-11-12T02:21:05;9.80;67.40
71188;DHT22;58893;53.130;8.158;2022-11-12T02:23:31;9.80;67.70
71188;DHT22;58893;53.130;8.158;2022-11-12T02:26:00;9.80;68.00
71188;DHT22;58893;53.130;8.158;2022-11-12T02:28:27;9.80;68.00
71188;DHT22;58893;53.130;8.158;2022-11-12T02:30:55;9.80;68.00
71188;DHT22;58893;53.130;8.158;2022-11-12T02:33:21;9.80;68.10
71188;DHT22;58893;53.130;8.158;2022-11-12T02:35:46;9.70;68.20
71188;DHT22;58893;53.130;8.158;2022-11-12T02:38:12;9.80;68.30
71188;DHT22;58893;53.130;8.158;2022-11-12T02:40:38;9.70;68.00
71188;DHT22;58893;53.130;8.158;2022-11-12T02:43:03;9.80;68.00
71188;DHT22;58893;53.130;8.158;2022-11-12T02:45:29;9.70;67.90
71188;DHT22;58893;53.130;8.158;2022-11-12T02:47:56;9.70;67.80
71188;DHT22;58893;53.130;8.158;2022-11-12T02:50:22;9.70;67.30
71188;DHT22;58893;53.130;8.158;2022-11-12T02:52:48;9.70;67.00
71188;DHT22;58893;53.130;8.158;2022-11-12T02:55:13;9.70;67.20
71188;DHT22;58893;53.130;8.158;2022-11-12T02:57:39;9.70;67.50
71188;DHT22;58893;53.130;8.158;2022-11-12T03:00:08;9.60;67.60
71188;DHT22;58893;53.130;8.158;2022-11-12T03:02:34;9.70;67.80
71188;DHT22;58893;53.130;8.158;2022-11-12T03:05:08;9.60;67.90
71188;DHT22;58893;53.130;8.158;2022-11-12T03:07:34;9.60;67.90
71188;DHT22;58893;53.130;8.158;2022-11-12T03:09:59;9.60;68.20
71188;DHT22;58893;53.130;8.158;2022-11-12T03:12:25;9.60;68.40
71188;DHT22;58893;53.130;8.158;2022-11-12T03:14:51;9.60;68.30
71188;DHT22;58893;53.130;8.158;2022-11-12T03:17:16;9.60;68.40
71188;DHT22;58893;53.130;8.158;2022-11-12T03:19:42;9.60;68.30
71188;DHT22;58893;53.130;8.158;2022-11-12T03:22:07;9.60;68.30
71188;DHT22;58893;53.130;8.158;2022-11-12T03:24:33;9.50;68.20
71188;DHT22;58893;53.130;8.158;2022-11-12T03:26:58;9.60;68.60
71188;DHT22;58893;53.130;8.158;2022-11-12T03:29:24;9.50;68.70
71188;DHT22;58893;53.130;8.158;2022-11-12T03:31:51;9.50;68.10
71188;DHT22;58893;53.130;8.158;2022-11-12T03:34:16;9.60;67.30
71188;DHT22;58893;53.130;8.158;2022-11-12T03:36:42;9.50;67.00
71188;DHT22;58893;53.130;8.158;2022-11-12T03:39:07;9.50;67.00
71188;DHT22;58893;53.130;8.158;2022-11-12T03:41:33;9.50;66.70
71188;DHT22;58893;53.130;8.158;2022-11-12T03:43:59;9.50;66.20
71188;DHT22;58893;53.130;8.158;2022-11-12T03:46:24;9.40;66.20
71188;DHT22;58893;53.130;8.158;2022-11-12T03:48:50;9.40;66.60
71188;DHT22;58893;53.130;8.158;2022-11-12T03:51:16;9.40;67.00
71188;DHT22;58893;53.130;8.158;2022-11-12T03:53:43;9.30;66.60
71188;DHT22;58893;53.130;8.158;2022-11-12T03:56:08;9.30;66.30
71188;DHT22;58893;53.130;8.158;2022-11-12T03:58:34;9.30;66.40
71188;DHT22;58893;53.130;8.158;2022-11-12T04:01:00;9.30;66.80
71188;DHT22;58893;53.130;8.158;2022-11-12T04:03:25;9.30;66.90
71188;DHT22;58893;53.130;8.158;2022-11-12T04:05:51;9.30;65.90
71188;DHT22;58893;53.130;8.158;2022-11-12T04:08:35;9.20;65.20
71188;DHT22;58893;53.130;8.158;2022-11-12T04:11:11;9.20;65.00
71188;DHT22;58893;53.130;8.158;2022-11-12T04:13:38;9.20;64.90
71188;DHT22;58893;53.130;8.158;2022-11-12T04:16:19;9.10;64.80
71188;DHT22;58893;53.130;8.158;2022-11-12T04:19:04;9.10;65.30
71188;DHT22;58893;53.130;8.158;2022-11-12T04:21:51;9.10;65.70
71188;DHT22;58893;53.130;8.158;2022-11-12T04:27:28;9.00;66.10
71188;DHT22;58893;53.130;8.158;2022-11-12T04:29:54;9.00;66.00
71188;DHT22;58893;53.130;8.158;2022-11-12T04:32:48;9.00;65.70
71188;DHT22;58893;53.130;8.158;2022-11-12T04:35:15;8.90;65.30
71188;DHT22;58893;53.130;8.158;2022-11-12T04:37:40;8.90;65.30
71188;DHT22;58893;53.130;8.158;2022-11-12T04:40:20;8.90;65.20
71188;DHT22;58893;53.130;8.158;2022-11-12T04:43:07;8.80;65.40
71188;DHT22;58893;53.130;8.158;2022-11-12T04:45:52;8.80;65.50
71188;DHT22;58893;53.130;8.158;2022-11-12T04:48:20;8.80;65.90
71188;DHT22;58893;53.130;8.158;2022-11-12T04:51:02;8.80;66.40
71188;DHT22;58893;53.130;8.158;2022-11-12T04:53:29;8.80;66.60
71188;DHT22;58893;53.130;8.158;2022-11-12T04:55:56;8.80;66.70
71188;DHT22;58893;53.130;8.158;2022-11-12T04:58:23;8.80;66.70
71188;DHT22;58893;53.130;8.158;2022-11-12T05:00:49;8.80;67.10
71188;DHT22;58893;53.130;8.158;2022-11-12T05:03:15;8.80;67.10
71188;DHT22;58893;53.130;8.158;2022-11-12T05:05:41;8.80;67.00
71188;DHT22;58893;53.130;8.158;2022-11-12T05:08:06;8.80;67.10
71188;DHT22;58893;53.130;8.158;2022-11-12T05:10:32;8.80;67.20
71188;DHT22;58893;53.130;8.158;2022-11-12T05:12:58;8.80;66.90
71188;DHT22;58893;53.130;8.158;2022-11-12T05:15:24;8.80;66.20
71188;DHT22;58893;53.130;8.158;2022-11-12T05:17:50;8.80;66.10
71188;DHT22;58893;53.130;8.158;2022-11-12T05:20:16;8.80;66.10
71188;DHT22;58893;53.130;8.158;2022-11-12T05:22:41;8.80;66.30
71188;DHT22;58893;53.130;8.158;2022-11-12T05:25:07;8.80;66.30
71188;DHT22;58893;53.130;8.158;2022-11-12T05:27:33;8.80;66.30
71188;DHT22;58893;53.130;8.158;2022-11-12T05:29:59;8.80;66.50
71188;DHT22;58893;53.130;8.158;2022-11-12T05:32:25;8.80;66.80
71188;DHT22;58893;53.130;8.158;2022-11-12T05:34:51;8.80;66.50
71188;DHT22;58893;53.130;8.158;2022-11-12T05:37:17;8.80;65.50
71188;DHT22;58893;53.130;8.158;2022-11-12T05:39:43;8.70;64.80
71188;DHT22;58893;53.130;8.158;2022-11-12T05:42:09;8.70;64.70
71188;DHT22;58893;53.130;8.158;2022-11-12T05:44:34;8.70;64.50
71188;DHT22;58893;53.130;8.158;2022-11-12T05:47:00;8.60;64.70
71188;DHT22;58893;53.130;8.158;2022-11-12T05:49:26;8.60;64.70
71188;DHT22;58893;53.130;8.158;2022-11-12T05:51:51;8.60;64.40
71188;DHT22;58893;53.130;8.158;2022-11-12T05:54:17;8.60;63.90
71188;DHT22;58893;53.130;8.158;2022-11-12T05:56:43;8.50;63.80
71188;DHT22;58893;53.130;8.158;2022-11-12T05:59:10;8.50;63.70
71188;DHT22;58893;53.130;8.158;2022-11-12T06:01:36;8.50;63.70
71188;DHT22;58893;53.130;8.158;2022-11-12T06:04:09;8.40;63.80
71188;DHT22;58893;53.130;8.158;2022-11-12T06:06:35;8.40;64.60
71188;DHT22;58893;53.130;8.158;2022-11-12T06:09:01;8.40;65.20
71188;DHT22;58893;53.130;8.158;2022-11-12T06:11:27;8.30;65.60
71188;DHT22;58893;53.130;8.158;2022-11-12T06:13:52;8.30;65.00
71188;DHT22;58893;53.130;8.158;2022-11-12T06:16:18;8.30;64.60
71188;DHT22;58893;53.130;8.158;2022-11-12T06:18:43;8.30;64.60
71188;DHT22;58893;53.130;8.158;2022-11-12T06:21:10;8.30;64.70
71188;DHT22;58893;53.130;8.158;2022-11-12T06:23:47;8.30;64.40
71188;DHT22;58893;53.130;8.158;2022-11-12T06:26:13;8.30;63.90
71188;DHT22;58893;53.130;8.158;2022-11-12T06:28:39;8.30;63.70
71188;DHT22;58893;53.130;8.158;2022-11-12T06:31:05;8.20;63.30
71188;DHT22;58893;53.130;8.158;2022-11-12T06:33:30;8.20;63.40
71188;DHT22;58893;53.130;8.158;2022-11-12T06:35:57;8.20;63.90
71188;DHT22;58893;53.130;8.158;2022-11-12T06:38:28;8.10;64.40
71188;DHT22;58893;53.130;8.158;2022-11-12T06:40:54;8.10;64.90
71188;DHT22;58893;53.130;8.158;2022-11-12T06:43:20;8.10;65.10
71188;DHT22;58893;53.130;8.158;2022-11-12T06:45:45;8.10;65.40
71188;DHT22;58893;53.130;8.158;2022-11-12T06:48:11;8.10;65.70
71188;DHT22;58893;53.130;8.158;2022-11-12T06:50:37;8.10;66.00
71188;DHT22;58893;53.130;8.158;2022-11-12T06:53:02;8.10;65.50
71188;DHT22;58893;53.130;8.158;2022-11-12T06:55:28;8.20;64.70
71188;DHT22;58893;53.130;8.158;2022-11-12T06:57:53;8.10;64.00
71188;DHT22;58893;53.130;8.158;2022-11-12T07:00:19;8.10;63.90
71188;DHT22;58893;53.130;8.158;2022-11-12T07:02:45;8.10;64.00
71188;DHT22;58893;53.130;8.158;2022-11-12T07:05:11;8.10;64.10
71188;DHT22;58893;53.130;8.158;2022-11-12T07:07:36;8.10;63.90
71188;DHT22;58893;53.130;8.158;2022-11-12T07:10:02;8.00;63.30
71188;DHT22;58893;53.130;8.158;2022-11-12T07:12:28;8.00;63.20
71188;DHT22;58893;53.130;8.158;2022-11-12T07:14:53;8.00;63.50
71188;DHT22;58893;53.130;8.158;2022-11-12T07:17:20;8.00;64.10
71188;DHT22;58893;53.130;8.158;2022-11-12T07:19:46;8.00;64.90
71188;DHT22;58893;53.130;8.158;2022-11-12T07:22:11;8.00;65.40
71188;DHT22;58893;53.130;8.158;2022-11-12T07:24:37;8.00;65.90
71188;DHT22;58893;53.130;8.158;2022-11-12T07:27:03;8.00;65.90
71188;DHT22;58893;53.130;8.158;2022-11-12T07:29:28;8.00;65.30
71188;DHT22;58893;53.130;8.158;2022-11-12T07:31:54;8.00;64.90
71188;DHT22;58893;53.130;8.158;2022-11-12T07:34:20;8.00;64.60
71188;DHT22;58893;53.130;8.158;2022-11-12T07:36:45;8.00;64.70
71188;DHT22;58893;53.130;8.158;2022-11-12T07:39:11;8.00;65.00
71188;DHT22;58893;53.130;8.158;2022-11-12T07:41:37;8.00;65.60
71188;DHT22;58893;53.130;8.158;2022-11-12T07:44:03;8.00;66.30
71188;DHT22;58893;53.130;8.158;2022-11-12T07:46:29;8.10;66.70
71188;DHT22;58893;53.130;8.158;2022-11-12T07:48:54;8.10;66.40
71188;DHT22;58893;53.130;8.158;2022-11-12T07:51:25;8.10;66.50
71188;DHT22;58893;53.130;8.158;2022-11-12T07:53:53;8.10;67.10
71188;DHT22;58893;53.130;8.158;2022-11-12T07:56:20;8.10;67.80
71188;DHT22;58893;53.130;8.158;2022-11-12T07:58:49;8.20;67.90
71188;DHT22;58893;53.130;8.158;2022-11-12T08:03:59;8.30;67.60
71188;DHT22;58893;53.130;8.158;2022-11-12T08:06:26;8.30;68.10
71188;DHT22;58893;53.130;8.158;2022-11-12T08:08:55;8.30;68.20
71188;DHT22;58893;53.130;8.158;2022-11-12T08:11:22;8.50;68.60
71188;DHT22;58893;53.130;8.158;2022-11-12T08:13:51;8.80;69.00
71188;DHT22;58893;53.130;8.158;2022-11-12T08:16:17;9.30;68.40
71188;DHT22;58893;53.130;8.158;2022-11-12T08:18:44;9.90;67.60
71188;DHT22;58893;53.130;8.158;2022-11-12T08:21:12;10.20;65.00
71188;DHT22;58893;53.130;8.158;2022-11-12T08:23:38;10.50;63.50
71188;DHT22;58893;53.130;8.158;2022-11-12T08:26:06;10.70;62.70
71188;DHT22;58893;53.130;8.158;2022-11-12T08:28:34;10.90;62.20
71188;DHT22;58893;53.130;8.158;2022-11-12T08:31:12;11.00;62.40
71188;DHT22;58893;53.130;8.158;2022-11-12T08:33:39;11.10;62.70
71188;DHT22;58893;53.130;8.158;2022-11-12T08:36:07;11.20;62.80
71188;DHT22;58893;53.130;8.158;2022-11-12T08:38:33;11.20;62.60
71188;DHT22;58893;53.130;8.158;2022-11-12T08:41:00;11.20;62.50
71188;DHT22;58893;53.130;8.158;2022-11-12T08:43:26;11.20;62.60
71188;DHT22;58893;53.130;8.158;2022-11-12T08:45:51;11.20;62.80
71188;DHT22;58893;53.130;8.158;2022-11-12T08:48:17;11.10;63.10
71188;DHT22;58893;53.130;8.158;2022-11-12T08:50:42;11.10;63.50
71188;DHT22;58893;53.130;8.158;2022-11-12T08:53:11;11.10;63.80
71188;DHT22;58893;53.130;8.158;2022-11-12T08:55:37;11.00;63.90
71188;DHT22;58893;53.130;8.158;2022-11-12T08:58:03;11.00;64.30
71188;DHT22;58893;53.130;8.158;2022-11-12T09:00:33;11.00;64.90
71188;DHT22;58893;53.130;8.158;2022-11-12T09:03:01;11.00;65.30
71188;DHT22;58893;53.130;8.158;2022-11-12T09:05:27;11.00;65.90
71188;DHT22;58893;53.130;8.158;2022-11-12T09:08:00;11.00;66.30
71188;DHT22;58893;53.130;8.158;2022-11-12T09:10:26;11.00;66.60
71188;DHT22;58893;53.130;8.158;2022-11-12T09:12:53;11.10;66.90
71188;DHT22;58893;53.130;8.158;2022-11-12T09:15:19;11.10;66.90
71188;DHT22;58893;53.130;8.158;2022-11-12T09:17:45;11.20;67.10
71188;DHT22;58893;53.130;8.158;2022-11-12T09:20:10;11.20;67.20
71188;DHT22;58893;53.130;8.158;2022-11-12T09:22:36;11.30;67.50
71188;DHT22;58893;53.130;8.158;2022-11-12T09:25:02;11.40;68.20
71188;DHT22;58893;53.130;8.158;2022-11-12T09:27:28;11.50;67.70
71188;DHT22;58893;53.130;8.158;2022-11-12T09:29:54;11.60;67.20
71188;DHT22;58893;53.130;8.158;2022-11-12T09:32:20;11.70;67.00
71188;DHT22;58893;53.130;8.158;2022-11-12T09:34:45;11.70;66.80
71188;DHT22;58893;53.130;8.158;2022-11-12T09:37:11;11.70;66.70
71188;DHT22;58893;53.130;8.158;2022-11-12T09:39:37;11.70;66.80
71188;DHT22;58893;53.130;8.158;2022-11-12T09:42:07;11.70;66.80
71188;DHT22;58893;53.130;8.158;2022-11-12T09:44:34;11.80;71.60
71188;DHT22;58893;53.130;8.158;2022-11-12T09:47:26;11.70;66.90
71188;DHT22;58893;53.130;8.158;2022-11-12T09:50:17;11.80;67.10
71188;DHT22;58893;53.130;8.158;2022-11-12T09:52:47;11.80;67.10
71188;DHT22;58893;53.130;8.158;2022-11-12T09:55:29;11.80;67.20
71188;DHT22;58893;53.130;8.158;2022-11-12T09:57:56;11.90;67.40
71188;DHT22;58893;53.130;8.158;2022-11-12T10:00:21;11.90;67.60
71188;DHT22;58893;53.130;8.158;2022-11-12T10:02:51;11.90;67.80
71188;DHT22;58893;53.130;8.158;2022-11-12T10:05:31;12.00;68.00
71188;DHT22;58893;53.130;8.158;2022-11-12T10:25:16;12.20;68.50
71188;DHT22;58893;53.130;8.158;2022-11-12T10:27:42;12.30;68.40
71188;DHT22;58893;53.130;8.158;2022-11-12T10:30:22;12.30;68.50
71188;DHT22;58893;53.130;8.158;2022-11-12T10:32:50;12.30;68.60
71188;DHT22;58893;53.130;8.158;2022-11-12T10:35:19;12.30;68.70
71188;DHT22;58893;53.130;8.158;2022-11-12T10:38:04;12.40;69.00
71188;DHT22;58893;53.130;8.158;2022-11-12T10:40:37;12.40;69.10
71188;DHT22;58893;53.130;8.158;2022-11-12T10:45:42;12.40;69.40
71188;DHT22;58893;53.130;8.158;2022-11-12T10:48:24;12.40;69.50
71188;DHT22;58893;53.130;8.158;2022-11-12T10:50:53;12.40;69.70
71188;DHT22;58893;53.130;8.158;2022-11-12T10:53:33;12.40;69.80
71188;DHT22;58893;53.130;8.158;2022-11-12T10:56:05;12.40;70.00
71188;DHT22;58893;53.130;8.158;2022-11-12T10:58:53;12.40;70.10
71188;DHT22;58893;53.130;8.158;2022-11-12T11:01:31;12.40;70.20
71188;DHT22;58893;53.130;8.158;2022-11-12T11:03:57;12.50;70.40
71188;DHT22;58893;53.130;8.158;2022-11-12T11:06:25;12.40;70.50
71188;DHT22;58893;53.130;8.158;2022-11-12T11:08:53;12.40;70.70
71188;DHT22;58893;53.130;8.158;2022-11-12T11:13:46;12.50;71.10
71188;DHT22;58893;53.130;8.158;2022-11-12T11:16:20;12.50;71.20
71188;DHT22;58893;53.130;8.158;2022-11-12T11:19:05;12.50;71.30
71188;DHT22;58893;53.130;8.158;2022-11-12T11:47:10;12.80;71.70
71188;DHT22;58893;53.130;8.158;2022-11-12T11:52:44;12.90;71.60
71188;DHT22;58893;53.130;8.158;2022-11-12T11:55:26;12.80;71.70
71188;DHT22;58893;53.130;8.158;2022-11-12T11:58:11;12.90;71.80
71188;DHT22;58893;53.130;8.158;2022-11-12T12:21:57;13.10;71.90
71188;DHT22;58893;53.130;8.158;2022-11-12T12:27:22;13.20;71.70
71188;DHT22;58893;53.130;8.158;2022-11-12T12:29:52;13.20;71.60
71188;DHT22;58893;53.130;8.158;2022-11-12T12:32:40;13.20;71.50
71188;DHT22;58893;53.130;8.158;2022-11-12T12:35:35;13.20;71.40
71188;DHT22;58893;53.130;8.158;2022-11-12T12:38:20;13.30;71.40
71188;DHT22;58893;53.130;8.158;2022-11-12T12:41:05;13.30;71.30
71188;DHT22;58893;53.130;8.158;2022-11-12T12:46:12;13.40;71.40
71188;DHT22;58893;53.130;8.158;2022-11-12T12:48:43;13.40;71.50
71188;DHT22;58893;53.130;8.158;2022-11-12T12:51:10;13.40;71.50
71188;DHT22;58893;53.130;8.158;2022-11-12T12:53:36;13.40;71.60
71188;DHT22;58893;53.130;8.158;2022-11-12T12:58:49;13.50;71.70
71188;DHT22;58893;53.130;8.158;2022-11-12T13:03:49;13.50;71.60
71188;DHT22;58893;53.130;8.158;2022-11-12T13:19:42;13.60;70.90
71188;DHT22;58893;53.130;8.158;2022-11-12T13:40:40;13.60;70.30
71188;DHT22;58893;53.130;8.158;2022-11-12T13:43:16;13.60;70.30
71188;DHT22;58893;53.130;8.158;2022-11-12T13:45:49;13.70;70.40
71188;DHT22;58893;53.130;8.158;2022-11-12T13:53:57;13.70;69.50
71188;DHT22;58893;53.130;8.158;2022-11-12T13:56:35;13.70;69.20
71188;DHT22;58893;53.130;8.158;2022-11-12T13:59:18;13.70;69.00
71188;DHT22;58893;53.130;8.158;2022-11-12T14:01:45;13.70;68.90
71188;DHT22;58893;53.130;8.158;2022-11-12T14:04:19;13.70;68.80
71188;DHT22;58893;53.130;8.158;2022-11-12T14:22:38;13.70;68.40
71188;DHT22;58893;53.130;8.158;2022-11-12T14:25:18;13.70;68.40
71188;DHT22;58893;53.130;8.158;2022-11-12T14:27:46;13.70;68.30
71188;DHT22;58893;53.130;8.158;2022-11-12T14:30:28;13.70;68.20
71188;DHT22;58893;53.130;8.158;2022-11-12T14:33:10;13.60;68.10
71188;DHT22;58893;53.130;8.158;2022-11-12T14:35:39;13.60;68.20
71188;DHT22;58893;53.130;8.158;2022-11-12T14:40:42;13.60;68.20
71188;DHT22;58893;53.130;8.158;2022-11-12T14:43:18;13.60;68.20
71188;DHT22;58893;53.130;8.158;2022-11-12T14:45:50;13.60;68.20
71188;DHT22;58893;53.130;8.158;2022-11-12T14:48:17;13.60;68.20
71188;DHT22;58893;53.130;8.158;2022-11-12T14:50:45;13.60;68.20
71188;DHT22;58893;53.130;8.158;2022-11-12T14:53:30;13.60;68.20
71188;DHT22;58893;53.130;8.158;2022-11-12T14:55:58;13.60;68.20
71188;DHT22;58893;53.130;8.158;2022-11-12T14:58:25;13.60;68.20
71188;DHT22;58893;53.130;8.158;2022-11-12T15:00:53;13.50;68.10
71188;DHT22;58893;53.130;8.158;2022-11-12T15:03:24;13.50;68.20
71188;DHT22;58893;53.130;8.158;2022-11-12T15:08:37;13.50;68.40
71188;DHT22;58893;53.130;8.158;2022-11-12T15:13:47;13.50;68.50
71188;DHT22;58893;53.130;8.158;2022-11-12T15:16:22;13.50;68.60
71188;DHT22;58893;53.130;8.158;2022-11-12T15:19:27;13.40;68.50
71188;DHT22;58893;53.130;8.158;2022-11-12T15:22:01;13.40;68.70
71188;DHT22;58893;53.130;8.158;2022-11-12T15:26:58;13.40;69.00
71188;DHT22;58893;53.130;8.158;2022-11-12T15:37:18;13.30;69.10
71188;DHT22;58893;53.130;8.158;2022-11-12T15:39:54;13.30;69.20
71188;DHT22;58893;53.130;8.158;2022-11-12T15:42:30;13.20;69.20
71188;DHT22;58893;53.130;8.158;2022-11-12T15:45:03;13.20;69.50
71188;DHT22;58893;53.130;8.158;2022-11-12T15:47:33;13.20;69.70
71188;DHT22;58893;53.130;8.158;2022-11-12T15:49:59;13.20;69.70
71188;DHT22;58893;53.130;8.158;2022-11-12T15:52:25;13.10;69.50
71188;DHT22;58893;53.130;8.158;2022-11-12T15:54:51;13.10;69.50
71188;DHT22;58893;53.130;8.158;2022-11-12T15:57:20;13.10;69.70
71188;DHT22;58893;53.130;8.158;2022-11-12T16:00:00;13.10;71.70
71188;DHT22;58893;53.130;8.158;2022-11-12T16:02:26;13.10;69.90
71188;DHT22;58893;53.130;8.158;2022-11-12T16:04:53;13.00;69.90
71188;DHT22;58893;53.130;8.158;2022-11-12T16:07:19;13.00;69.90
71188;DHT22;58893;53.130;8.158;2022-11-12T16:09:44;13.00;69.90
71188;DHT22;58893;53.130;8.158;2022-11-12T16:12:11;12.90;69.90
71188;DHT22;58893;53.130;8.158;2022-11-12T16:14:38;12.90;70.00
71188;DHT22;58893;53.130;8.158;2022-11-12T16:17:17;12.90;70.20
71188;DHT22;58893;53.130;8.158;2022-11-12T16:19:43;12.80;70.30
71188;DHT22;58893;53.130;8.158;2022-11-12T16:22:08;12.80;70.40
71188;DHT22;58893;53.130;8.158;2022-11-12T16:24:40;12.70;70.40
71188;DHT22;58893;53.130;8.158;2022-11-12T16:27:10;12.70;70.50
71188;DHT22;58893;53.130;8.158;2022-11-12T16:29:37;12.70;70.60
71188;DHT22;58893;53.130;8.158;2022-11-12T16:32:03;12.60;70.60
71188;DHT22;58893;53.130;8.158;2022-11-12T16:34:29;12.60;70.70
71188;DHT22;58893;53.130;8.158;2022-11-12T16:36:55;12.60;70.90
71188;DHT22;58893;53.130;8.158;2022-11-12T16:39:21;12.50;70.90
71188;DHT22;58893;53.130;8.158;2022-11-12T16:41:47;12.50;70.90
71188;DHT22;58893;53.130;8.158;2022-11-12T16:44:12;12.50;70.90
71188;DHT22;58893;53.130;8.158;2022-11-12T16:46:40;12.50;70.90
71188;DHT22;58893;53.130;8.158;2022-11-12T16:49:15;12.40;70.90
71188;DHT22;58893;53.130;8.158;2022-11-12T16:51:41;12.40;71.00
71188;DHT22;58893;53.130;8.158;2022-11-12T16:54:07;12.40;71.20
71188;DHT22;58893;53.130;8.158;2022-11-12T16:56:33;12.40;71.30
71188;DHT22;58893;53.130;8.158;2022-11-12T16:59:00;12.40;71.50
71188;DHT22;58893;53.130;8.158;2022-11-12T17:01:31;12.40;71.40
71188;DHT22;58893;53.130;8.158;2022-11-12T17:03:57;12.40;71.20
71188;DHT22;58893;53.130;8.158;2022-11-12T17:06:31;12.30;70.90
71188;DHT22;58893;53.130;8.158;2022-11-12T17:08:58;12.30;70.90
71188;DHT22;58893;53.130;8.158;2022-11-12T17:11:23;12.30;70.90
71188;DHT22;58893;53.130;8.158;2022-11-12T17:13:49;12.20;70.80
71188;DHT22;58893;53.130;8.158;2022-11-12T17:16:15;12.20;71.00
71188;DHT22;58893;53.130;8.158;2022-11-12T17:18:40;12.20;71.40
71188;DHT22;58893;53.130;8.158;2022-11-12T17:21:17;12.20;71.60
71188;DHT22;58893;53.130;8.158;2022-11-12T17:23:43;12.20;71.70
71188;DHT22;58893;53.130;8.158;2022-11-12T17:26:14;12.20;71.70
71188;DHT22;58893;53.130;8.158;2022-11-12T17:28:40;12.20;71.80
71188;DHT22;58893;53.130;8.158;2022-11-12T17:31:10;12.20;71.90
71188;DHT22;58893;53.130;8.158;2022-11-12T17:33:37;12.20;72.00
71188;DHT22;58893;53.130;8.158;2022-11-12T17:36:04;12.20;71.80
71188;DHT22;58893;53.130;8.158;2022-11-12T17:38:30;12.20;72.30
71188;DHT22;58893;53.130;8.158;2022-11-12T17:40:56;12.20;71.60
71188;DHT22;58893;53.130;8.158;2022-11-12T17:43:22;12.20;71.60
71188;DHT22;58893;53.130;8.158;2022-11-12T17:45:52;12.20;71.50
71188;DHT22;58893;53.130;8.158;2022-11-12T17:48:18;12.10;71.50
71188;DHT22;58893;53.130;8.158;2022-11-12T17:50:44;12.10;71.60
71188;DHT22;58893;53.130;8.158;2022-11-12T17:53:10;12.10;71.80
71188;DHT22;58893;53.130;8.158;2022-11-12T17:55:36;12.10;72.10
71188;DHT22;58893;53.130;8.158;2022-11-12T17:58:01;12.10;72.30
71188;DHT22;58893;53.130;8.158;2022-11-12T18:00:27;12.10;72.30
71188;DHT22;58893;53.130;8.158;2022-11-12T18:02:57;12.00;72.10
71188;DHT22;58893;53.130;8.158;2022-11-12T18:05:23;12.00;71.70
71188;DHT22;58893;53.130;8.158;2022-11-12T18:07:49;12.00;71.40
71188;DHT22;58893;53.130;8.158;2022-11-12T18:10:15;11.90;71.20
71188;DHT22;58893;53.130;8.158;2022-11-12T18:12:41;11.90;71.20
71188;DHT22;58893;53.130;8.158;2022-11-12T18:15:07;11.90;71.70
71188;DHT22;58893;53.130;8.158;2022-11-12T18:17:33;11.80;72.60
71188;DHT22;58893;53.130;8.158;2022-11-12T18:19:59;11.90;72.40
71188;DHT22;58893;53.130;8.158;2022-11-12T18:22:25;11.90;72.50
71188;DHT22;58893;53.130;8.158;2022-11-12T18:24:50;11.90;72.70
71188;DHT22;58893;53.130;8.158;2022-11-12T18:27:20;11.90;72.70
71188;DHT22;58893;53.130;8.158;2022-11-12T18:29:46;11.90;72.70